createdAt,value
2023-04-15T00:00:58.580Z,3.38
2023-04-15T00:03:27.072Z,2.75
2023-04-15T00:05:55.242Z,3.15
2023-04-15T00:08:23.121Z,2.95
2023-04-15T00:10:54.983Z,3.15
2023-04-15T00:13:22.878Z,2.95
2023-04-15T00:15:50.710Z,3.28
2023-04-15T00:18:18.625Z,3.10
2023-04-15T00:20:46.563Z,2.85
2023-04-15T00:23:14.409Z,3.38
2023-04-15T00:25:42.286Z,2.97
2023-04-15T00:28:10.181Z,2.92
2023-04-15T00:30:38.200Z,3.58
2023-04-15T00:33:06.874Z,3.53
2023-04-15T00:35:35.997Z,3.55
2023-04-15T00:38:05.291Z,3.90
2023-04-15T00:40:33.525Z,3.30
2023-04-15T00:43:01.474Z,3.28
2023-04-15T00:45:29.383Z,3.30
2023-04-15T00:47:57.449Z,3.65
2023-04-15T00:50:26.453Z,4.15
2023-04-15T00:52:54.434Z,3.70
2023-04-15T00:55:22.381Z,2.92
2023-04-15T00:57:50.765Z,3.28
2023-04-15T01:00:20.343Z,3.20
2023-04-15T01:02:48.749Z,3.33
2023-04-15T01:05:18.743Z,2.80
2023-04-15T01:07:47.956Z,2.92
2023-04-15T01:10:15.854Z,3.40
2023-04-15T01:12:44.672Z,2.80
2023-04-15T01:15:12.563Z,3.40
2023-04-15T01:17:40.734Z,3.13
2023-04-15T01:20:10.631Z,3.47
2023-04-15T01:22:39.571Z,3.55
2023-04-15T01:25:19.968Z,3.33
2023-04-15T01:27:49.281Z,3.33
2023-04-15T01:30:17.455Z,3.80
2023-04-15T01:32:45.279Z,4.13
2023-04-15T01:35:13.356Z,4.60
2023-04-15T01:37:41.313Z,4.28
2023-04-15T01:40:09.625Z,4.20
2023-04-15T01:42:37.794Z,3.78
2023-04-15T01:45:06.438Z,3.53
2023-04-15T01:47:34.335Z,3.80
2023-04-15T01:50:02.355Z,3.10
2023-04-15T01:52:30.521Z,3.35
2023-04-15T01:54:58.441Z,3.70
2023-04-15T01:57:26.476Z,4.18
2023-04-15T01:59:54.367Z,3.67
2023-04-15T02:02:23.017Z,3.38
2023-04-15T02:04:51.023Z,3.67
2023-04-15T02:07:19.773Z,4.05
2023-04-15T02:09:47.827Z,3.40
2023-04-15T02:12:15.717Z,3.60
2023-04-15T02:14:43.642Z,3.78
2023-04-15T02:17:11.785Z,3.17
2023-04-15T02:19:40.632Z,3.40
2023-04-15T02:22:09.427Z,3.55
2023-04-15T02:24:37.376Z,3.10
2023-04-15T02:27:05.186Z,3.05
2023-04-15T02:29:33.187Z,3.10
2023-04-15T02:32:02.248Z,3.22
2023-04-15T02:34:31.604Z,2.58
2023-04-15T02:36:59.472Z,3.05
2023-04-15T02:39:27.528Z,3.30
2023-04-15T02:41:55.447Z,3.30
2023-04-15T02:44:25.190Z,2.92
2023-04-15T02:46:58.507Z,3.13
2023-04-15T02:49:26.678Z,3.35
2023-04-15T02:51:55.517Z,3.58
2023-04-15T02:54:23.668Z,3.08
2023-04-15T02:56:52.284Z,2.65
2023-04-15T02:59:20.267Z,3.28
2023-04-15T03:01:48.270Z,4.13
2023-04-15T03:04:16.541Z,3.13
2023-04-15T03:06:44.590Z,3.40
2023-04-15T03:09:12.604Z,3.17
2023-04-15T03:11:42.192Z,3.60
2023-04-15T03:14:11.289Z,3.05
2023-04-15T03:16:43.079Z,3.65
2023-04-15T03:19:11.096Z,3.80
2023-04-15T03:21:41.819Z,3.53
2023-04-15T03:24:10.093Z,3.63
2023-04-15T03:26:38.089Z,3.58
2023-04-15T03:29:17.929Z,3.15
2023-04-15T03:31:48.462Z,3.50
2023-04-15T03:34:17.535Z,3.20
2023-04-15T03:36:45.846Z,3.20
2023-04-15T03:39:13.802Z,3.75
2023-04-15T03:41:41.787Z,3.47
2023-04-15T03:44:09.626Z,3.15
2023-04-15T03:46:37.509Z,2.83
2023-04-15T03:49:07.281Z,3.03
2023-04-15T03:51:35.811Z,3.10
2023-04-15T03:54:03.649Z,3.60
2023-04-15T03:56:31.594Z,3.65
2023-04-15T03:58:59.648Z,3.17
2023-04-15T04:01:27.626Z,3.50
2023-04-15T04:03:55.639Z,3.35
2023-04-15T04:06:23.612Z,3.92
2023-04-15T04:08:51.624Z,3.15
2023-04-15T04:11:19.502Z,3.97
2023-04-15T04:13:47.358Z,3.28
2023-04-15T04:16:15.415Z,3.58
2023-04-15T04:18:43.313Z,3.28
2023-04-15T04:21:11.167Z,3.28
2023-04-15T04:23:39.184Z,3.20
2023-04-15T04:26:07.286Z,3.15
2023-04-15T04:28:36.501Z,3.17
2023-04-15T04:31:04.436Z,3.17
2023-04-15T04:33:32.267Z,2.95
2023-04-15T04:36:00.055Z,3.00
2023-04-15T04:38:27.934Z,2.95
2023-04-15T04:40:56.135Z,3.20
2023-04-15T04:43:24.089Z,3.08
2023-04-15T04:45:52.206Z,2.83
2023-04-15T04:48:20.280Z,2.72
2023-04-15T04:50:48.203Z,2.78
2023-04-15T04:53:16.423Z,2.83
2023-04-15T04:55:44.319Z,3.20
2023-04-15T04:58:12.622Z,3.30
2023-04-15T05:00:41.173Z,3.20
2023-04-15T05:03:09.455Z,3.17
2023-04-15T05:05:39.574Z,2.97
2023-04-15T05:08:07.813Z,3.15
2023-04-15T05:10:36.083Z,2.72
2023-04-15T05:13:04.046Z,3.13
2023-04-15T05:15:32.802Z,3.28
2023-04-15T05:18:01.299Z,10.77
2023-04-15T05:20:29.947Z,9.23
2023-04-15T05:22:57.837Z,4.82
2023-04-15T05:25:26.257Z,3.25
2023-04-15T05:27:54.160Z,3.22
2023-04-15T05:30:22.381Z,3.60
2023-04-15T05:32:51.061Z,4.05
2023-04-15T05:35:19.309Z,3.97
2023-04-15T05:37:47.334Z,3.63
2023-04-15T05:40:15.670Z,5.47
2023-04-15T05:42:44.681Z,5.30
2023-04-15T05:45:12.745Z,7.07
2023-04-15T05:47:40.852Z,6.22
2023-04-15T05:50:12.195Z,4.55
2023-04-15T05:52:40.196Z,3.83
2023-04-15T05:55:08.305Z,4.65
2023-04-15T05:57:36.736Z,4.07
2023-04-15T06:00:05.447Z,3.80
2023-04-15T06:02:37.909Z,3.83
2023-04-15T06:05:10.051Z,4.47
2023-04-15T06:07:38.928Z,4.85
2023-04-15T06:10:07.496Z,3.60
2023-04-15T06:12:35.429Z,4.80
2023-04-15T06:15:04.038Z,3.80
2023-04-15T06:17:31.907Z,6.78
2023-04-15T06:19:59.770Z,5.70
2023-04-15T06:22:27.677Z,3.97
2023-04-15T06:24:55.770Z,4.70
2023-04-15T06:27:23.831Z,3.28
2023-04-15T06:29:51.708Z,3.10
2023-04-15T06:32:19.666Z,3.33
2023-04-15T06:34:47.586Z,3.15
2023-04-15T06:37:16.598Z,2.88
2023-04-15T06:39:44.820Z,2.78
2023-04-15T06:42:12.744Z,2.80
2023-04-15T06:44:40.725Z,2.97
2023-04-15T06:47:09.291Z,2.97
2023-04-15T06:49:37.125Z,2.88
2023-04-15T06:52:05.380Z,2.97
2023-04-15T06:54:33.252Z,3.20
2023-04-15T06:57:01.641Z,2.80
2023-04-15T06:59:29.540Z,2.92
2023-04-15T07:01:57.523Z,3.03
2023-04-15T07:04:25.802Z,2.55
2023-04-15T07:06:54.373Z,2.55
2023-04-15T07:09:25.763Z,3.85
2023-04-15T07:11:53.796Z,4.20
2023-04-15T07:14:21.756Z,2.47
2023-04-15T07:16:49.742Z,1.77
2023-04-15T07:19:17.590Z,1.95
2023-04-15T07:21:45.670Z,4.07
2023-04-15T07:24:17.038Z,2.58
2023-04-15T07:26:45.446Z,2.30
2023-04-15T07:29:13.394Z,1.67
2023-04-15T07:31:42.393Z,1.80
2023-04-15T07:34:10.854Z,1.60
2023-04-15T07:36:38.801Z,1.65
2023-04-15T07:39:06.999Z,1.73
2023-04-15T07:41:35.269Z,1.77
2023-04-15T07:44:03.222Z,1.70
2023-04-15T07:46:31.252Z,2.03
2023-04-15T07:48:59.288Z,2.05
2023-04-15T07:51:27.145Z,2.20
2023-04-15T07:53:55.181Z,1.70
2023-04-15T07:56:23.112Z,1.80
2023-04-15T07:58:50.902Z,2.00
2023-04-15T08:01:18.741Z,1.80
2023-04-15T08:03:47.252Z,1.88
2023-04-15T08:06:15.182Z,1.95
2023-04-15T08:08:43.252Z,2.10
2023-04-15T08:11:11.083Z,2.00
2023-04-15T08:13:39.016Z,2.00
2023-04-15T08:16:16.340Z,2.00
2023-04-15T08:18:44.431Z,2.17
2023-04-15T08:21:12.577Z,2.17
2023-04-15T08:23:40.752Z,2.20
2023-04-15T08:26:08.849Z,2.28
2023-04-15T08:28:36.932Z,2.20
2023-04-15T08:31:04.814Z,2.00
2023-04-15T08:33:32.944Z,2.00
2023-04-15T08:36:00.715Z,2.20
2023-04-15T08:38:28.857Z,1.90
2023-04-15T08:40:57.319Z,2.75
2023-04-15T08:43:28.669Z,2.30
2023-04-15T08:45:59.062Z,2.10
2023-04-15T08:48:29.574Z,1.95
2023-04-15T08:50:57.723Z,1.85
2023-04-15T08:53:25.921Z,1.88
2023-04-15T08:55:53.887Z,1.95
2023-04-15T08:58:21.760Z,2.45
2023-04-15T09:00:49.655Z,2.00
2023-04-15T09:03:18.464Z,2.40
2023-04-15T09:05:47.094Z,2.28
2023-04-15T09:08:15.046Z,2.78
2023-04-15T09:10:42.981Z,2.47
2023-04-15T09:13:10.955Z,2.45
2023-04-15T09:15:41.972Z,2.92
2023-04-15T09:18:12.703Z,2.83
2023-04-15T09:20:44.241Z,2.22
2023-04-15T09:23:18.227Z,2.38
2023-04-15T09:25:46.311Z,2.30
2023-04-15T09:28:14.146Z,2.38
2023-04-15T09:30:49.172Z,2.47
2023-04-15T09:33:18.353Z,2.70
2023-04-15T09:35:57.819Z,2.30
2023-04-15T09:38:25.721Z,2.42
2023-04-15T09:40:53.624Z,2.67
2023-04-15T09:43:22.130Z,2.30
2023-04-15T09:45:55.068Z,2.30
2023-04-15T09:48:25.502Z,2.97
2023-04-15T09:50:54.948Z,2.65
2023-04-15T09:53:23.341Z,2.80
2023-04-15T09:55:52.103Z,2.67
2023-04-15T09:58:20.789Z,3.05
2023-04-15T10:00:50.623Z,2.78
2023-04-15T10:03:22.776Z,2.80
2023-04-15T10:05:52.806Z,3.38
2023-04-15T10:08:23.998Z,3.30
2023-04-15T10:10:52.601Z,2.90
2023-04-15T10:13:28.808Z,2.85
2023-04-15T10:16:01.973Z,2.78
2023-04-15T10:20:57.764Z,3.25
2023-04-15T10:23:26.132Z,3.05
2023-04-15T10:25:55.073Z,2.88
2023-04-15T10:28:23.214Z,2.58
2023-04-15T10:30:51.119Z,2.88
2023-04-15T10:33:20.931Z,3.00
2023-04-15T10:35:50.256Z,2.85
2023-04-15T10:38:33.877Z,3.60
2023-04-15T10:41:15.456Z,3.40
2023-04-15T10:43:49.751Z,2.60
2023-04-15T10:46:25.923Z,2.92
2023-04-15T10:48:55.084Z,3.13
2023-04-15T10:51:30.218Z,3.30
2023-04-15T10:53:58.995Z,3.80
2023-04-15T10:56:27.065Z,3.40
2023-04-15T10:58:54.926Z,3.70
2023-04-15T11:01:23.410Z,3.13
2023-04-15T11:03:51.997Z,3.20
2023-04-15T11:06:20.025Z,3.28
2023-04-15T11:08:59.113Z,3.30
2023-04-15T11:11:46.466Z,3.03
2023-04-15T11:14:17.494Z,3.42
2023-04-15T11:16:45.483Z,3.97
2023-04-15T11:19:13.379Z,3.70
2023-04-15T11:21:41.490Z,3.53
2023-04-15T11:24:09.413Z,3.35
2023-04-15T11:26:37.446Z,3.80
2023-04-15T11:29:05.716Z,3.25
2023-04-15T11:31:33.682Z,3.20
2023-04-15T11:34:02.660Z,3.53
2023-04-15T11:36:32.291Z,3.40
2023-04-15T11:39:19.104Z,3.70
2023-04-15T11:41:46.944Z,3.05
2023-04-15T11:44:18.567Z,2.78
2023-04-15T11:46:46.420Z,3.15
2023-04-15T11:49:27.084Z,3.60
2023-04-15T11:51:54.934Z,3.03
2023-04-15T11:54:22.982Z,2.90
2023-04-15T11:56:54.740Z,3.53
2023-04-15T11:59:23.017Z,3.03
2023-04-15T12:01:52.752Z,2.60
2023-04-15T12:04:25.837Z,2.90
2023-04-15T12:06:54.017Z,2.80
2023-04-15T12:09:22.381Z,2.75
2023-04-15T12:11:51.346Z,2.90
2023-04-15T12:14:22.585Z,2.30
2023-04-15T12:16:52.573Z,2.20
2023-04-15T12:19:26.088Z,3.15
2023-04-15T12:21:55.295Z,2.67
2023-04-15T12:24:23.709Z,2.85
2023-04-15T12:26:52.395Z,2.60
2023-04-15T12:29:21.305Z,2.55
2023-04-15T12:31:50.178Z,2.10
2023-04-15T12:34:18.745Z,2.53
2023-04-15T12:36:47.009Z,2.28
2023-04-15T12:39:14.860Z,2.45
2023-04-15T12:41:42.842Z,2.30
2023-04-15T12:44:10.965Z,2.95
2023-04-15T12:46:39.012Z,2.40
2023-04-15T12:49:07.090Z,2.35
2023-04-15T12:51:35.035Z,1.80
2023-04-15T12:54:03.214Z,2.10
2023-04-15T12:56:31.316Z,1.88
2023-04-15T12:58:59.144Z,1.40
2023-04-15T13:01:27.495Z,1.90
2023-04-15T13:03:55.826Z,2.03
2023-04-15T13:06:24.804Z,1.90
2023-04-15T13:08:58.235Z,2.33
2023-04-15T13:11:27.332Z,2.40
2023-04-15T13:13:55.547Z,2.05
2023-04-15T13:16:23.936Z,2.00
2023-04-15T13:18:51.892Z,1.80
2023-04-15T13:21:20.211Z,2.53
2023-04-15T13:23:50.045Z,2.17
2023-04-15T13:26:21.523Z,1.92
2023-04-15T13:28:56.768Z,1.75
2023-04-15T13:31:24.840Z,2.28
2023-04-15T13:33:52.883Z,1.65
2023-04-15T13:36:20.720Z,2.08
2023-04-15T13:38:51.107Z,1.75
2023-04-15T13:41:21.251Z,1.67
2023-04-15T13:43:49.508Z,1.67
2023-04-15T13:46:17.511Z,1.50
2023-04-15T13:48:45.650Z,1.70
2023-04-15T13:51:13.517Z,1.63
2023-04-15T13:53:41.768Z,1.52
2023-04-15T13:56:09.742Z,1.70
2023-04-15T13:58:38.457Z,1.30
2023-04-15T14:01:07.473Z,1.70
2023-04-15T14:03:36.649Z,1.75
2023-04-15T14:06:05.787Z,1.23
2023-04-15T14:08:34.192Z,1.50
2023-04-15T14:11:02.161Z,1.73
2023-04-15T14:13:30.247Z,1.10
2023-04-15T14:15:58.191Z,1.70
2023-04-15T14:18:26.208Z,1.33
2023-04-15T14:20:54.199Z,1.48
2023-04-15T14:23:22.157Z,1.63
2023-04-15T14:25:50.109Z,1.80
2023-04-15T14:28:18.179Z,1.65
2023-04-15T14:30:46.083Z,1.42
2023-04-15T14:33:14.184Z,1.48
2023-04-15T14:35:42.032Z,1.25
2023-04-15T14:38:11.516Z,1.52
2023-04-15T14:40:39.655Z,1.60
2023-04-15T14:43:07.666Z,1.30
2023-04-15T14:45:36.510Z,1.40
2023-04-15T14:48:06.550Z,1.48
2023-04-15T14:50:34.663Z,1.60
2023-04-15T14:53:02.709Z,1.88
2023-04-15T14:55:30.871Z,1.30
2023-04-15T14:57:58.959Z,1.33
2023-04-15T15:00:26.908Z,1.10
2023-04-15T15:02:54.900Z,1.02
2023-04-15T15:05:23.140Z,1.10
2023-04-15T15:07:51.094Z,0.95
2023-04-15T15:10:46.638Z,1.50
2023-04-15T15:13:07.554Z,2.58
2023-04-15T15:15:36.046Z,1.50
2023-04-15T15:18:04.063Z,1.63
2023-04-15T15:20:33.179Z,2.50
2023-04-15T15:23:01.459Z,1.77
2023-04-15T15:25:29.564Z,1.67
2023-04-15T15:27:58.381Z,1.42
2023-04-15T15:30:26.582Z,1.08
2023-04-15T15:32:54.421Z,1.70
2023-04-15T15:35:23.150Z,1.40
2023-04-15T15:37:51.331Z,1.38
2023-04-15T15:40:19.415Z,1.10
2023-04-15T15:42:49.948Z,1.08
2023-04-15T15:45:18.078Z,1.30
2023-04-15T15:47:46.360Z,1.88
2023-04-15T15:50:14.768Z,4.00
2023-04-15T15:52:42.828Z,1.90
2023-04-15T15:55:10.841Z,1.70
2023-04-15T15:57:38.810Z,1.25
2023-04-15T16:00:12.145Z,1.38
2023-04-15T16:03:05.068Z,1.85
2023-04-15T16:05:28.826Z,1.50
2023-04-15T16:07:56.705Z,2.10
2023-04-15T16:10:24.940Z,1.88
2023-04-15T16:12:52.822Z,2.53
2023-04-15T16:15:21.027Z,2.03
2023-04-15T16:17:48.987Z,2.00
2023-04-15T16:20:17.014Z,1.98
2023-04-15T16:22:44.907Z,2.47
2023-04-15T16:25:12.885Z,2.22
2023-04-15T16:27:57.181Z,1.98
2023-04-15T16:30:27.165Z,2.00
2023-04-15T16:32:55.300Z,1.77
2023-04-15T16:35:23.192Z,2.08
2023-04-15T16:37:51.053Z,2.47
2023-04-15T16:40:18.968Z,2.65
2023-04-15T16:42:47.173Z,2.65
2023-04-15T16:45:15.258Z,1.80
2023-04-15T16:47:43.321Z,1.73
2023-04-15T16:50:11.612Z,1.25
2023-04-15T16:52:39.602Z,1.35
2023-04-15T16:55:07.517Z,1.58
2023-04-15T16:58:00.359Z,0.93
2023-04-15T17:00:23.786Z,1.40
2023-04-15T17:02:51.739Z,1.10
2023-04-15T17:05:19.816Z,1.50
2023-04-15T17:07:47.823Z,1.67
2023-04-15T17:10:15.793Z,1.40
2023-04-15T17:12:43.750Z,1.95
2023-04-15T17:15:11.795Z,1.42
2023-04-15T17:17:39.779Z,1.42
2023-04-15T17:20:08.099Z,1.55
2023-04-15T17:22:35.985Z,1.80
2023-04-15T17:25:04.737Z,1.75
2023-04-15T17:27:32.510Z,1.27
2023-04-15T17:30:00.603Z,1.30
2023-04-15T17:32:36.594Z,1.52
2023-04-15T17:35:06.710Z,1.27
2023-04-15T17:37:35.381Z,1.33
2023-04-15T17:40:03.493Z,1.13
2023-04-15T17:42:31.894Z,1.30
2023-04-15T17:44:59.712Z,1.25
2023-04-15T17:47:28.526Z,1.42
2023-04-15T17:49:56.472Z,1.67
2023-04-15T17:52:24.543Z,3.78
2023-04-15T17:54:52.574Z,2.17
2023-04-15T17:57:20.761Z,2.38
2023-04-15T17:59:58.526Z,1.88
2023-04-15T18:02:29.179Z,1.60
2023-04-15T18:04:57.483Z,1.45
2023-04-15T18:07:25.731Z,2.10
2023-04-15T18:09:55.971Z,1.60
2023-04-15T18:12:24.296Z,1.65
2023-04-15T18:14:52.526Z,1.42
2023-04-15T18:17:21.718Z,7.10
2023-04-15T18:19:50.037Z,2.65
2023-04-15T18:22:18.303Z,9.40
2023-04-15T18:24:46.384Z,1.65
2023-04-15T18:27:14.334Z,1.63
2023-04-15T18:29:43.071Z,1.65
2023-04-15T18:32:14.727Z,1.48
2023-04-15T18:35:05.544Z,1.55
2023-04-15T18:37:46.044Z,1.42
2023-04-15T18:40:16.247Z,1.52
2023-04-15T18:42:44.185Z,1.80
2023-04-15T18:45:12.263Z,2.03
2023-04-15T18:47:40.261Z,2.00
2023-04-15T18:50:09.171Z,1.58
2023-04-15T18:52:37.573Z,2.60
2023-04-15T18:55:06.271Z,9.85
2023-04-15T18:57:38.877Z,1.75
2023-04-15T19:00:08.787Z,1.92
2023-04-15T19:02:36.973Z,1.70
2023-04-15T19:05:06.119Z,1.45
2023-04-15T19:07:34.151Z,1.45
2023-04-15T19:10:03.239Z,1.77
2023-04-15T19:12:38.969Z,1.50
2023-04-15T19:15:07.342Z,1.48
2023-04-15T19:17:35.798Z,1.45
2023-04-15T19:20:03.963Z,1.55
2023-04-15T19:22:32.282Z,1.40
2023-04-15T19:25:00.226Z,1.67
2023-04-15T19:27:28.427Z,1.95
2023-04-15T19:29:56.973Z,2.00
2023-04-15T19:32:41.566Z,1.80
2023-04-15T19:35:23.374Z,1.40
2023-04-15T19:37:51.630Z,1.27
2023-04-15T19:40:19.800Z,1.33
2023-04-15T19:42:47.928Z,1.60
2023-04-15T19:45:16.134Z,1.30
2023-04-15T19:47:44.050Z,2.00
2023-04-15T19:50:13.079Z,1.65
2023-04-15T19:52:40.908Z,5.30
2023-04-15T19:55:09.134Z,1.80
2023-04-15T19:57:36.922Z,1.33
2023-04-15T20:00:05.031Z,1.40
2023-04-15T20:02:33.895Z,1.48
2023-04-15T20:05:02.546Z,1.33
2023-04-15T20:07:30.787Z,1.65
2023-04-15T20:09:58.734Z,1.38
2023-04-15T20:12:49.500Z,1.13
2023-04-15T20:15:14.997Z,1.33
2023-04-15T20:17:43.094Z,1.30
2023-04-15T20:20:11.159Z,2.42
2023-04-15T20:22:39.383Z,1.73
2023-04-15T20:25:07.706Z,1.67
2023-04-15T20:27:35.981Z,1.30
2023-04-15T20:30:05.116Z,4.25
2023-04-15T20:32:39.210Z,1.30
2023-04-15T20:35:07.658Z,1.20
2023-04-15T20:37:38.994Z,3.22
2023-04-15T20:40:09.665Z,1.60
2023-04-15T20:42:38.693Z,1.35
2023-04-15T20:45:07.468Z,1.27
2023-04-15T20:47:38.733Z,1.20
2023-04-15T20:50:06.842Z,1.00
2023-04-15T20:52:34.876Z,1.25
2023-04-15T20:55:02.716Z,0.80
2023-04-15T20:57:33.068Z,0.90
2023-04-15T21:00:01.998Z,1.02
2023-04-15T21:02:30.390Z,1.00
2023-04-15T21:04:59.694Z,0.98
2023-04-15T21:07:27.771Z,2.55
2023-04-15T21:09:56.563Z,1.30
2023-04-15T21:12:24.900Z,1.02
2023-04-15T21:14:53.152Z,0.93
2023-04-15T21:17:21.633Z,0.77
2023-04-15T21:19:49.674Z,1.08
2023-04-15T21:22:17.574Z,1.20
2023-04-15T21:24:45.488Z,1.00
2023-04-15T21:27:17.591Z,1.02
2023-04-15T21:29:46.205Z,0.77
2023-04-15T21:32:14.277Z,0.95
2023-04-15T21:34:42.150Z,0.90
2023-04-15T21:37:11.270Z,1.00
2023-04-15T21:39:39.104Z,0.85
2023-04-15T21:42:07.222Z,1.55
2023-04-15T21:44:35.208Z,1.08
2023-04-15T21:47:03.253Z,1.10
2023-04-15T21:49:32.080Z,1.17
2023-04-15T21:52:01.474Z,0.82
2023-04-15T21:54:31.208Z,0.98
2023-04-15T21:56:59.324Z,0.82
2023-04-15T21:59:27.266Z,0.90
2023-04-15T22:01:55.263Z,0.93
2023-04-15T22:04:23.278Z,0.95
2023-04-15T22:06:52.475Z,0.90
2023-04-15T22:09:20.625Z,0.80
2023-04-15T22:11:48.958Z,1.50
2023-04-15T22:14:16.940Z,1.30
2023-04-15T22:16:45.029Z,0.85
2023-04-15T22:19:12.933Z,1.10
2023-04-15T22:21:40.940Z,1.02
2023-04-15T22:24:39.372Z,1.30
2023-04-15T22:26:56.980Z,2.80
2023-04-15T22:29:25.081Z,4.40
2023-04-15T22:31:53.195Z,1.52
2023-04-15T22:34:22.046Z,1.33
2023-04-15T22:36:50.364Z,1.23
2023-04-15T22:39:18.978Z,1.33
2023-04-15T22:41:47.162Z,1.40
2023-04-15T22:44:15.254Z,1.20
2023-04-15T22:46:43.896Z,1.17
2023-04-15T22:49:11.979Z,1.25
2023-04-15T22:51:39.953Z,1.20
2023-04-15T22:54:08.189Z,1.05
2023-04-15T22:56:36.036Z,1.30
2023-04-15T22:59:03.927Z,1.10
2023-04-15T23:01:32.432Z,1.10
2023-04-15T23:04:06.494Z,1.30
2023-04-15T23:06:37.675Z,1.08
2023-04-15T23:09:05.642Z,1.40
2023-04-15T23:11:33.675Z,1.15
2023-04-15T23:14:01.503Z,1.30
2023-04-15T23:16:29.533Z,1.33
2023-04-15T23:18:57.492Z,1.40
2023-04-15T23:21:27.399Z,1.33
2023-04-15T23:23:55.455Z,1.25
2023-04-15T23:26:23.566Z,1.20
2023-04-15T23:28:51.371Z,1.00
2023-04-15T23:31:19.308Z,1.42
2023-04-15T23:33:47.462Z,1.38
2023-04-15T23:36:15.347Z,1.42
2023-04-15T23:38:43.314Z,1.35
2023-04-15T23:41:12.234Z,0.98
2023-04-15T23:43:40.151Z,1.25
2023-04-15T23:46:08.674Z,1.40
2023-04-15T23:48:36.532Z,1.00
2023-04-15T23:51:05.121Z,1.30
2023-04-15T23:53:32.993Z,1.10
2023-04-15T23:56:01.506Z,1.10
2023-04-15T23:58:29.377Z,1.08
